Lock Haven, PA

8:20 AM EDT on September 03, 2015 (GMT -0400)
W3SKP | | Change Station
CLOSE
Current Station
Personal Weather Station
Location: Lock Haven, PA
Elevation: 633 ft
Nearby Weather Stations

Elev 633 ft 41.14 °N, 77.42 °W | Updated 13 minutes ago

Partly Cloudy
Partly Cloudy
82.6 °F
Feels Like 93 °F
N
2.2
Wind Variable Wind from North

Today
High -- | Low -- °F
--% Chance of Precip.
Yesterday
High -- | Low -- °F
Precip. -- in
6:37 AM 7:39 PM
Waning Gibbous, 71% visible
Pressure 29.95 in
Visibility 4.0 miles
Clouds Overcast 500 ft
Heat Index 93 °F
Dew Point 79 °F
Humidity 88%
Rainfall 0.00 in
Snow Depth Not available.
UV 0 out of 12
Pollen 9.50 out of 12
Air Quality Not available.
Flu Activity Not available.
SPECI KIPT 031201Z 35003KT 4SM BR OVC005 21/19 A2995 RMK AO2 T02060189
Pressure 29.95 in
Visibility 4.0 miles
Clouds Overcast 500 ft
Heat Index 93 °F
Dew Point 79 °F
Humidity 88%
Rainfall 0.00 in
Snow Depth Not available.
UV 0 out of 12
Pollen 9.50 out of 12
Air Quality Not available.
Flu Activity Not available.
SPECI KIPT 031201Z 35003KT 4SM BR OVC005 21/19 A2995 RMK AO2 T02060189

10-Day Weather Forecast

×

Almanac

Astronomy

Sep. 03, 2015 Rise Set
Actual Time
Civil Twilight
Nautical Twilight
Astronomical Twilight
Moon
Length of Visible Light
Length of Day
Tomorrow will be .
, % of the Moon is Illuminated

Today's Extremes

State Highs State Lows

Community

WunderPhotos

Upload Photos

1,851,945 photos uploaded!

WunderBlogs® & News

Nearby

Air Quality

  Air Quality AQ Index Pollutant
Not available.

Snow Depth

Station Depth Elevation

Earthquake Activity

City Distance Mag. Time & Date
Minimum magnitude displayed is 2.5.

Coastal Water Temperatures

Place Temperature

Stations

Nearby Weather Stations

Station Location Temp. Windchill Dew Point Humidity Wind Precip. Elev Updated Type